Jay Michael — WDD2051 — position and weather

sailwx.info

Track history (hours):
 
Tides and Currents Weather Stations Pressure Air Temp Water Temp Dewpoint Dewpoint Depression Visibility Wind Speed Wind Dir Waves Ship Positions

Jay Michael

Owner: Sterling Equipment Inc., Quincy, MA. More information available from US FCC via Universal Licensing System and Coast Guard Vessel Documentation Center.

Last reported at 2016-Jul-28 00:33 UTC. Time now 2016-Jul-28 00:57 UTC.
Position N 39°45' W 074°00'.

Length 21 m; draft 2.5 m.

Type: Tug. MMSI: 367110280.

Date/timePositionNaut miles runAvg speedWind from/ knotsBaromVisibWave heightAir tempDewpointWater temp
2016-Jul-28 00:33N 39°45' W 074°00'46 4.5
2016-Jul-27 14:31N 40°30' W 073°57'5 5.3
2016-Jul-27 13:33N 40°33' W 074°02'6 6.2
2016-Jul-27 12:33N 40°39' W 074°06'3 2.9
2016-Jul-27 11:33N 40°39' W 074°09'0 0.2
2016-Jul-27 10:33N 40°38' W 074°09'0 0.0
2016-Jul-27 09:33N 40°38' W 074°09'0 0.0
2016-Jul-27 08:33N 40°38' W 074°09'0 0.0
2016-Jul-27 07:33N 40°38' W 074°09'0 0.0
2016-Jul-27 06:33N 40°38' W 074°09'0 0.0
2016-Jul-27 05:33N 40°38' W 074°09'0 0.0
2016-Jul-27 04:33N 40°38' W 074°09'0 0.0
2016-Jul-27 03:33N 40°38' W 074°09'0 0.0
2016-Jul-27 02:33N 40°38' W 074°09'0 0.0
2016-Jul-27 01:33N 40°38' W 074°09'0 0.0
2016-Jul-27 00:33N 40°38' W 074°09'0 0.0
2016-Jul-26 23:33N 40°38' W 074°09'0 0.0
2016-Jul-26 22:33N 40°38' W 074°09'0 0.0
2016-Jul-26 21:33N 40°38' W 074°09'0 0.0
2016-Jul-26 20:33N 40°38' W 074°09'0 0.0
2016-Jul-26 19:33N 40°38' W 074°09'0 0.0
2016-Jul-26 18:33N 40°38' W 074°09'0 0.4
2016-Jul-26 17:33N 40°39' W 074°09'0 0.4
2016-Jul-26 16:33N 40°38' W 074°09'0 0.0
2016-Jul-26 15:33N 40°38' W 074°09'0 0.0
2016-Jul-26 14:33N 40°38' W 074°09'2 1.8
2016-Jul-26 13:29N 40°38' W 074°12'0 0.0
2016-Jul-26 12:33N 40°38' W 074°12'0 0.0
2016-Jul-26 11:33N 40°38' W 074°12'2 1.9
2016-Jul-26 10:33N 40°38' W 074°09'0 0.0
2016-Jul-26 09:33N 40°38' W 074°09'0 0.0
2016-Jul-26 08:33N 40°38' W 074°09'0 0.0
2016-Jul-26 07:33N 40°38' W 074°09'0 0.0
2016-Jul-26 06:33N 40°38' W 074°09'0 0.0
2016-Jul-26 05:33N 40°38' W 074°09'0 0.0
2016-Jul-26 04:33N 40°38' W 074°09'0 0.0
2016-Jul-26 03:33N 40°38' W 074°09'0 0.0
2016-Jul-26 02:33N 40°38' W 074°09'0 0.0
2016-Jul-26 01:33N 40°38' W 074°09'0 0.0
2016-Jul-26 00:33N 40°38' W 074°09'0 0.0
2016-Jul-25 23:33N 40°38' W 074°09'0 0.0
2016-Jul-25 22:33N 40°38' W 074°09'0 0.0
2016-Jul-25 21:33N 40°38' W 074°09'0 0.0
2016-Jul-25 20:33N 40°38' W 074°09'0 0.0
2016-Jul-25 19:33N 40°38' W 074°09'0 0.0
2016-Jul-25 18:33N 40°38' W 074°09'0 0.0
2016-Jul-25 17:33N 40°38' W 074°09'0 0.0
2016-Jul-25 16:33N 40°38' W 074°09'0 0.0
2016-Jul-25 15:33N 40°38' W 074°09'0 0.0
2016-Jul-25 14:33N 40°38' W 074°09'0 0.0
2016-Jul-25 13:33N 40°38' W 074°09'0 0.0
2016-Jul-25 12:33N 40°38' W 074°09'0 0.0
2016-Jul-25 11:33N 40°38' W 074°09'0 0.0
2016-Jul-25 10:33N 40°38' W 074°09'0 0.0
2016-Jul-25 09:33N 40°38' W 074°09'0 0.0
2016-Jul-25 08:33N 40°38' W 074°09'0 0.0
2016-Jul-25 07:33N 40°38' W 074°09'0 0.0
2016-Jul-25 06:33N 40°38' W 074°09'0 0.0
2016-Jul-25 05:33N 40°38' W 074°09'0 0.0
2016-Jul-25 04:33N 40°38' W 074°09'0 0.0
2016-Jul-25 03:33N 40°38' W 074°09'0 0.0
2016-Jul-25 02:33N 40°38' W 074°09'0 0.0
2016-Jul-25 01:33N 40°38' W 074°09'0 0.0
2016-Jul-25 00:33N 40°38' W 074°09'0 0.0
2016-Jul-24 23:33N 40°38' W 074°09'0 0.0
2016-Jul-24 22:33N 40°38' W 074°09'0 0.0
2016-Jul-24 18:14N 40°38' W 074°09'0 0.0
2016-Jul-24 17:23N 40°38' W 074°09'0 0.0
2016-Jul-24 15:25N 40°38' W 074°09'0 0.0
2016-Jul-24 14:28N 40°38' W 074°09'0 0.0
2016-Jul-24 13:28N 40°38' W 074°09'0 0.0
2016-Jul-24 12:22N 40°38' W 074°09'0 0.0
2016-Jul-24 11:31N 40°38' W 074°09'0 0.0
2016-Jul-24 09:28N 40°38' W 074°09'0 0.0
2016-Jul-24 08:33N 40°38' W 074°09'0 0.0
2016-Jul-24 07:33N 40°38' W 074°09'0 0.0
2016-Jul-24 06:33N 40°38' W 074°09'0 0.0
2016-Jul-24 05:33N 40°38' W 074°09'0 0.0
2016-Jul-24 04:33N 40°38' W 074°09'0 0.0
2016-Jul-24 03:33N 40°38' W 074°09'0 0.0
2016-Jul-24 02:33N 40°38' W 074°09'0 0.0
2016-Jul-24 01:33N 40°38' W 074°09'0 0.0
2016-Jul-24 00:33N 40°38' W 074°09'0 0.0
2016-Jul-23 23:33N 40°38' W 074°09'0 0.0
2016-Jul-23 22:33N 40°38' W 074°09'0 0.0
2016-Jul-23 21:33N 40°38' W 074°09'0 0.0
2016-Jul-23 20:33N 40°38' W 074°09'0 0.0
2016-Jul-23 19:34N 40°38' W 074°09'0 0.0
2016-Jul-23 18:34N 40°38' W 074°09'0 0.0
2016-Jul-23 17:33N 40°38' W 074°09'0 0.0
2016-Jul-23 16:34N 40°38' W 074°09'0 0.0
2016-Jul-23 15:34N 40°38' W 074°09'0 0.0
2016-Jul-23 14:34N 40°38' W 074°09'0 0.0
2016-Jul-23 13:33N 40°38' W 074°09'0 0.0
2016-Jul-23 12:34N 40°38' W 074°09'0 0.0
2016-Jul-23 11:34N 40°38' W 074°09'0 0.0
2016-Jul-23 10:34N 40°38' W 074°09'0 0.0
2016-Jul-23 09:34N 40°38' W 074°09'0 0.0
2016-Jul-23 08:33N 40°38' W 074°09'0 0.0
2016-Jul-23 07:33N 40°38' W 074°09'0 0.0
2016-Jul-23 06:33N 40°38' W 074°09'0 0.0
2016-Jul-23 04:34N 40°38' W 074°09'0 0.0
2016-Jul-23 03:33N 40°38' W 074°09'0 0.0
2016-Jul-23 02:33N 40°38' W 074°09'0 0.0
2016-Jul-23 01:33N 40°38' W 074°09'0 0.0
2016-Jul-23 00:34N 40°38' W 074°09'0 0.0
2016-Jul-22 23:33N 40°38' W 074°09'0 0.0
2016-Jul-22 22:34N 40°38' W 074°09'0 0.0
2016-Jul-22 21:33N 40°38' W 074°09'0 0.0
2016-Jul-22 20:34N 40°38' W 074°09'0 0.0
2016-Jul-22 19:33N 40°38' W 074°09'0 0.0
2016-Jul-22 18:33N 40°38' W 074°09'0 0.0
2016-Jul-22 17:34N 40°38' W 074°09'0 0.0
2016-Jul-22 16:34N 40°38' W 074°09'0 0.0
2016-Jul-22 15:34N 40°38' W 074°09'0 0.0
2016-Jul-22 14:34N 40°38' W 074°09'0 0.0
2016-Jul-22 13:33N 40°38' W 074°09'0 0.0
2016-Jul-22 12:33N 40°38' W 074°09'0 0.0
2016-Jul-22 11:34N 40°38' W 074°09'0 0.0
2016-Jul-22 10:33N 40°38' W 074°09'0 0.0
2016-Jul-22 09:34N 40°38' W 074°09'0 0.0
2016-Jul-22 08:33N 40°38' W 074°09'0 0.0
2016-Jul-22 07:33N 40°38' W 074°09'0 0.0
2016-Jul-22 05:33N 40°38' W 074°09'0 0.0
2016-Jul-22 04:33N 40°38' W 074°09'0 0.0
2016-Jul-22 03:34N 40°38' W 074°09'0 0.0
2016-Jul-22 02:34N 40°38' W 074°09'0 0.0
2016-Jul-22 01:33N 40°38' W 074°09'0 0.0
2016-Jul-22 00:34N 40°38' W 074°09'0 0.0
2016-Jul-21 23:34N 40°38' W 074°09'0 0.0
2016-Jul-21 22:34N 40°38' W 074°09'0 0.0
2016-Jul-21 21:33N 40°38' W 074°09'0 0.0
2016-Jul-21 20:34N 40°38' W 074°09'0 0.0
2016-Jul-21 19:34N 40°38' W 074°09'0 0.0
2016-Jul-21 18:33N 40°38' W 074°09'0 0.0
2016-Jul-21 17:34N 40°38' W 074°09'0 0.0
2016-Jul-21 16:34N 40°38' W 074°09'0 0.0
2016-Jul-21 15:33N 40°38' W 074°09'0 0.0
2016-Jul-21 14:34N 40°38' W 074°09'2 1.8
2016-Jul-21 13:29N 40°38' W 074°12'2 2.1
2016-Jul-21 12:34N 40°38' W 074°09'0 0.0
2016-Jul-21 11:34N 40°38' W 074°09'0 0.0
2016-Jul-21 10:33N 40°38' W 074°09'0 0.0
2016-Jul-21 09:33N 40°38' W 074°09'0 0.0
2016-Jul-21 08:33N 40°38' W 074°09'0 0.0
2016-Jul-21 07:34N 40°38' W 074°09'0 0.0
2016-Jul-21 05:34N 40°38' W 074°09'0 0.0
2016-Jul-21 04:33N 40°38' W 074°09'0 0.0
2016-Jul-21 03:34N 40°38' W 074°09'0 0.0
2016-Jul-21 02:33N 40°38' W 074°09'0 0.0
2016-Jul-21 01:34N 40°38' W 074°09'0 0.0
2016-Jul-21 00:34N 40°38' W 074°09'0 0.0
2016-Jul-20 23:33N 40°38' W 074°09'0 0.0
2016-Jul-20 22:33N 40°38' W 074°09'0 0.0
2016-Jul-20 21:34N 40°38' W 074°09'0 0.0
2016-Jul-20 20:33N 40°38' W 074°09'0 0.0
2016-Jul-20 19:33N 40°38' W 074°09'0 0.0
2016-Jul-20 18:33N 40°38' W 074°09'0 0.0
2016-Jul-20 17:33N 40°38' W 074°09'0 0.0
2016-Jul-20 16:33N 40°38' W 074°09'1 0.9
2016-Jul-20 15:32N 40°39' W 074°10'1 0.9
2016-Jul-20 14:33N 40°38' W 074°09'0 0.0
2016-Jul-20 13:33N 40°38' W 074°09'2 2.0
2016-Jul-20 12:33N 40°40' W 074°08'4 3.5
2016-Jul-20 11:33N 40°44' W 074°07'3 3.3
2016-Jul-20 10:33N 40°40' W 074°08'2 2.1
2016-Jul-20 09:27N 40°38' W 074°09'0 0.0
2016-Jul-20 08:31N 40°38' W 074°09'0 0.0
2016-Jul-20 07:14N 40°38' W 074°09'0 0.0
2016-Jul-20 06:06N 40°38' W 074°09'0 0.0
2016-Jul-19 20:25N 40°38' W 074°09'1 1.6
2016-Jul-19 19:33N 40°39' W 074°11'1 0.7
2016-Jul-19 18:33N 40°38' W 074°12'0 0.0
2016-Jul-19 17:33N 40°38' W 074°12'2 2.0
2016-Jul-19 16:33N 40°38' W 074°09'2 1.0
2016-Jul-19 14:29N 40°38' W 074°12'0 0.0
2016-Jul-19 13:33N 40°38' W 074°12'0 0.0
2016-Jul-19 12:30N 40°38' W 074°12'0 0.0
2016-Jul-19 11:28N 40°38' W 074°12'0 0.4
2016-Jul-19 10:31N 40°39' W 074°11'2 1.6
2016-Jul-19 09:31N 40°38' W 074°09'0 0.0
2016-Jul-19 08:16N 40°38' W 074°09'0 0.0
2016-Jul-19 07:31N 40°38' W 074°09'0 0.0
2016-Jul-19 04:32N 40°38' W 074°09'0 0.0
2016-Jul-19 03:33N 40°38' W 074°09'0 0.0
2016-Jul-19 02:33N 40°38' W 074°09'0 0.0
2016-Jul-19 01:33N 40°38' W 074°09'0 0.0
2016-Jul-19 00:32N 40°38' W 074°09'0 0.0
2016-Jul-18 23:26N 40°38' W 074°09'0 0.0
2016-Jul-18 22:32N 40°38' W 074°09'1 0.8
2016-Jul-18 21:33N 40°39' W 074°09'1 0.8
2016-Jul-18 20:31N 40°38' W 074°09'0 0.0
2016-Jul-18 19:32N 40°38' W 074°09'0 0.0
2016-Jul-18 18:33N 40°38' W 074°09'0 0.0
2016-Jul-18 17:33N 40°38' W 074°09'0 0.0
2016-Jul-18 16:33N 40°38' W 074°09'0 0.0
2016-Jul-18 15:33N 40°38' W 074°09'0 0.0
2016-Jul-18 14:33N 40°38' W 074°09'0 0.0
2016-Jul-18 13:33N 40°38' W 074°09'0 0.0
2016-Jul-18 12:33N 40°38' W 074°09'0 0.0
2016-Jul-18 11:33N 40°38' W 074°09'0 0.0
2016-Jul-18 10:33N 40°38' W 074°09'0 0.0
2016-Jul-18 09:33N 40°38' W 074°09'0 0.0
2016-Jul-18 08:33N 40°38' W 074°09'0 0.0
2016-Jul-18 07:33N 40°38' W 074°09'0 0.0
2016-Jul-18 06:33N 40°38' W 074°09'0 0.0
2016-Jul-18 05:33N 40°38' W 074°09'0 0.0
2016-Jul-18 04:33N 40°38' W 074°09'0 0.0
2016-Jul-18 03:33N 40°38' W 074°09'0 0.0
2016-Jul-18 02:33N 40°38' W 074°09'0 0.0
2016-Jul-18 01:33N 40°38' W 074°09'0 0.0
2016-Jul-18 00:33N 40°38' W 074°09'  
Track history (hours):
 
Tides and Currents Weather Stations Pressure Air Temp Water Temp Dewpoint Dewpoint Depression Visibility Wind Speed Wind Dir Waves Ship Positions

Jay Michael

Owner: Sterling Equipment Inc., Quincy, MA. More information available from US FCC via Universal Licensing System and Coast Guard Vessel Documentation Center.

Last reported at 2016-Jul-28 00:33 UTC. Time now 2016-Jul-28 00:57 UTC.
Position N 39°45' W 074°00'.

Length 21 m; draft 2.5 m.

Type: Tug. MMSI: 367110280.

Date/timePositionNaut miles runAvg speedWind from/ knotsBaromVisibWave heightAir tempDewpointWater temp
2016-Jul-28 00:33N 39°45' W 074°00'46 4.5
2016-Jul-27 14:31N 40°30' W 073°57'5 5.3
2016-Jul-27 13:33N 40°33' W 074°02'6 6.2
2016-Jul-27 12:33N 40°39' W 074°06'3 2.9
2016-Jul-27 11:33N 40°39' W 074°09'0 0.2
2016-Jul-27 10:33N 40°38' W 074°09'0 0.0
2016-Jul-27 09:33N 40°38' W 074°09'0 0.0
2016-Jul-27 08:33N 40°38' W 074°09'0 0.0
2016-Jul-27 07:33N 40°38' W 074°09'0 0.0
2016-Jul-27 06:33N 40°38' W 074°09'0 0.0
2016-Jul-27 05:33N 40°38' W 074°09'0 0.0
2016-Jul-27 04:33N 40°38' W 074°09'0 0.0
2016-Jul-27 03:33N 40°38' W 074°09'0 0.0
2016-Jul-27 02:33N 40°38' W 074°09'0 0.0
2016-Jul-27 01:33N 40°38' W 074°09'0 0.0
2016-Jul-27 00:33N 40°38' W 074°09'0 0.0
2016-Jul-26 23:33N 40°38' W 074°09'0 0.0
2016-Jul-26 22:33N 40°38' W 074°09'0 0.0
2016-Jul-26 21:33N 40°38' W 074°09'0 0.0
2016-Jul-26 20:33N 40°38' W 074°09'0 0.0
2016-Jul-26 19:33N 40°38' W 074°09'0 0.0
2016-Jul-26 18:33N 40°38' W 074°09'0 0.4
2016-Jul-26 17:33N 40°39' W 074°09'0 0.4
2016-Jul-26 16:33N 40°38' W 074°09'0 0.0
2016-Jul-26 15:33N 40°38' W 074°09'0 0.0
2016-Jul-26 14:33N 40°38' W 074°09'2 1.8
2016-Jul-26 13:29N 40°38' W 074°12'0 0.0
2016-Jul-26 12:33N 40°38' W 074°12'0 0.0
2016-Jul-26 11:33N 40°38' W 074°12'2 1.9
2016-Jul-26 10:33N 40°38' W 074°09'0 0.0
2016-Jul-26 09:33N 40°38' W 074°09'0 0.0
2016-Jul-26 08:33N 40°38' W 074°09'0 0.0
2016-Jul-26 07:33N 40°38' W 074°09'0 0.0
2016-Jul-26 06:33N 40°38' W 074°09'0 0.0
2016-Jul-26 05:33N 40°38' W 074°09'0 0.0
2016-Jul-26 04:33N 40°38' W 074°09'0 0.0
2016-Jul-26 03:33N 40°38' W 074°09'0 0.0
2016-Jul-26 02:33N 40°38' W 074°09'0 0.0
2016-Jul-26 01:33N 40°38' W 074°09'0 0.0
2016-Jul-26 00:33N 40°38' W 074°09'0 0.0
2016-Jul-25 23:33N 40°38' W 074°09'0 0.0
2016-Jul-25 22:33N 40°38' W 074°09'0 0.0
2016-Jul-25 21:33N 40°38' W 074°09'0 0.0
2016-Jul-25 20:33N 40°38' W 074°09'0 0.0
2016-Jul-25 19:33N 40°38' W 074°09'0 0.0
2016-Jul-25 18:33N 40°38' W 074°09'0 0.0
2016-Jul-25 17:33N 40°38' W 074°09'0 0.0
2016-Jul-25 16:33N 40°38' W 074°09'0 0.0
2016-Jul-25 15:33N 40°38' W 074°09'0 0.0
2016-Jul-25 14:33N 40°38' W 074°09'0 0.0
2016-Jul-25 13:33N 40°38' W 074°09'0 0.0
2016-Jul-25 12:33N 40°38' W 074°09'0 0.0
2016-Jul-25 11:33N 40°38' W 074°09'0 0.0
2016-Jul-25 10:33N 40°38' W 074°09'0 0.0
2016-Jul-25 09:33N 40°38' W 074°09'0 0.0
2016-Jul-25 08:33N 40°38' W 074°09'0 0.0
2016-Jul-25 07:33N 40°38' W 074°09'0 0.0
2016-Jul-25 06:33N 40°38' W 074°09'0 0.0
2016-Jul-25 05:33N 40°38' W 074°09'0 0.0
2016-Jul-25 04:33N 40°38' W 074°09'0 0.0
2016-Jul-25 03:33N 40°38' W 074°09'0 0.0
2016-Jul-25 02:33N 40°38' W 074°09'0 0.0
2016-Jul-25 01:33N 40°38' W 074°09'0 0.0
2016-Jul-25 00:33N 40°38' W 074°09'0 0.0
2016-Jul-24 23:33N 40°38' W 074°09'0 0.0
2016-Jul-24 22:33N 40°38' W 074°09'0 0.0
2016-Jul-24 18:14N 40°38' W 074°09'0 0.0
2016-Jul-24 17:23N 40°38' W 074°09'0 0.0
2016-Jul-24 15:25N 40°38' W 074°09'0 0.0
2016-Jul-24 14:28N 40°38' W 074°09'0 0.0
2016-Jul-24 13:28N 40°38' W 074°09'0 0.0
2016-Jul-24 12:22N 40°38' W 074°09'0 0.0
2016-Jul-24 11:31N 40°38' W 074°09'0 0.0
2016-Jul-24 09:28N 40°38' W 074°09'0 0.0
2016-Jul-24 08:33N 40°38' W 074°09'0 0.0
2016-Jul-24 07:33N 40°38' W 074°09'0 0.0
2016-Jul-24 06:33N 40°38' W 074°09'0 0.0
2016-Jul-24 05:33N 40°38' W 074°09'0 0.0
2016-Jul-24 04:33N 40°38' W 074°09'0 0.0
2016-Jul-24 03:33N 40°38' W 074°09'0 0.0
2016-Jul-24 02:33N 40°38' W 074°09'0 0.0
2016-Jul-24 01:33N 40°38' W 074°09'0 0.0
2016-Jul-24 00:33N 40°38' W 074°09'0 0.0
2016-Jul-23 23:33N 40°38' W 074°09'0 0.0
2016-Jul-23 22:33N 40°38' W 074°09'0 0.0
2016-Jul-23 21:33N 40°38' W 074°09'0 0.0
2016-Jul-23 20:33N 40°38' W 074°09'0 0.0
2016-Jul-23 19:34N 40°38' W 074°09'0 0.0
2016-Jul-23 18:34N 40°38' W 074°09'0 0.0
2016-Jul-23 17:33N 40°38' W 074°09'0 0.0
2016-Jul-23 16:34N 40°38' W 074°09'0 0.0
2016-Jul-23 15:34N 40°38' W 074°09'0 0.0
2016-Jul-23 14:34N 40°38' W 074°09'0 0.0
2016-Jul-23 13:33N 40°38' W 074°09'0 0.0
2016-Jul-23 12:34N 40°38' W 074°09'0 0.0
2016-Jul-23 11:34N 40°38' W 074°09'0 0.0
2016-Jul-23 10:34N 40°38' W 074°09'0 0.0
2016-Jul-23 09:34N 40°38' W 074°09'0 0.0
2016-Jul-23 08:33N 40°38' W 074°09'0 0.0
2016-Jul-23 07:33N 40°38' W 074°09'0 0.0
2016-Jul-23 06:33N 40°38' W 074°09'0 0.0
2016-Jul-23 04:34N 40°38' W 074°09'0 0.0
2016-Jul-23 03:33N 40°38' W 074°09'0 0.0
2016-Jul-23 02:33N 40°38' W 074°09'0 0.0
2016-Jul-23 01:33N 40°38' W 074°09'0 0.0
2016-Jul-23 00:34N 40°38' W 074°09'0 0.0
2016-Jul-22 23:33N 40°38' W 074°09'0 0.0
2016-Jul-22 22:34N 40°38' W 074°09'0 0.0
2016-Jul-22 21:33N 40°38' W 074°09'0 0.0
2016-Jul-22 20:34N 40°38' W 074°09'0 0.0
2016-Jul-22 19:33N 40°38' W 074°09'0 0.0
2016-Jul-22 18:33N 40°38' W 074°09'0 0.0
2016-Jul-22 17:34N 40°38' W 074°09'0 0.0
2016-Jul-22 16:34N 40°38' W 074°09'0 0.0
2016-Jul-22 15:34N 40°38' W 074°09'0 0.0
2016-Jul-22 14:34N 40°38' W 074°09'0 0.0
2016-Jul-22 13:33N 40°38' W 074°09'0 0.0
2016-Jul-22 12:33N 40°38' W 074°09'0 0.0
2016-Jul-22 11:34N 40°38' W 074°09'0 0.0
2016-Jul-22 10:33N 40°38' W 074°09'0 0.0
2016-Jul-22 09:34N 40°38' W 074°09'0 0.0
2016-Jul-22 08:33N 40°38' W 074°09'0 0.0
2016-Jul-22 07:33N 40°38' W 074°09'0 0.0
2016-Jul-22 05:33N 40°38' W 074°09'0 0.0
2016-Jul-22 04:33N 40°38' W 074°09'0 0.0
2016-Jul-22 03:34N 40°38' W 074°09'0 0.0
2016-Jul-22 02:34N 40°38' W 074°09'0 0.0
2016-Jul-22 01:33N 40°38' W 074°09'0 0.0
2016-Jul-22 00:34N 40°38' W 074°09'0 0.0
2016-Jul-21 23:34N 40°38' W 074°09'0 0.0
2016-Jul-21 22:34N 40°38' W 074°09'0 0.0
2016-Jul-21 21:33N 40°38' W 074°09'0 0.0
2016-Jul-21 20:34N 40°38' W 074°09'0 0.0
2016-Jul-21 19:34N 40°38' W 074°09'0 0.0
2016-Jul-21 18:33N 40°38' W 074°09'0 0.0
2016-Jul-21 17:34N 40°38' W 074°09'0 0.0
2016-Jul-21 16:34N 40°38' W 074°09'0 0.0
2016-Jul-21 15:33N 40°38' W 074°09'0 0.0
2016-Jul-21 14:34N 40°38' W 074°09'2 1.8
2016-Jul-21 13:29N 40°38' W 074°12'2 2.1
2016-Jul-21 12:34N 40°38' W 074°09'0 0.0
2016-Jul-21 11:34N 40°38' W 074°09'0 0.0
2016-Jul-21 10:33N 40°38' W 074°09'0 0.0
2016-Jul-21 09:33N 40°38' W 074°09'0 0.0
2016-Jul-21 08:33N 40°38' W 074°09'0 0.0
2016-Jul-21 07:34N 40°38' W 074°09'0 0.0
2016-Jul-21 05:34N 40°38' W 074°09'0 0.0
2016-Jul-21 04:33N 40°38' W 074°09'0 0.0
2016-Jul-21 03:34N 40°38' W 074°09'0 0.0
2016-Jul-21 02:33N 40°38' W 074°09'0 0.0
2016-Jul-21 01:34N 40°38' W 074°09'0 0.0
2016-Jul-21 00:34N 40°38' W 074°09'0 0.0
2016-Jul-20 23:33N 40°38' W 074°09'0 0.0
2016-Jul-20 22:33N 40°38' W 074°09'0 0.0
2016-Jul-20 21:34N 40°38' W 074°09'0 0.0
2016-Jul-20 20:33N 40°38' W 074°09'0 0.0
2016-Jul-20 19:33N 40°38' W 074°09'0 0.0
2016-Jul-20 18:33N 40°38' W 074°09'0 0.0
2016-Jul-20 17:33N 40°38' W 074°09'0 0.0
2016-Jul-20 16:33N 40°38' W 074°09'1 0.9
2016-Jul-20 15:32N 40°39' W 074°10'1 0.9
2016-Jul-20 14:33N 40°38' W 074°09'0 0.0
2016-Jul-20 13:33N 40°38' W 074°09'2 2.0
2016-Jul-20 12:33N 40°40' W 074°08'4 3.5
2016-Jul-20 11:33N 40°44' W 074°07'3 3.3
2016-Jul-20 10:33N 40°40' W 074°08'2 2.1
2016-Jul-20 09:27N 40°38' W 074°09'0 0.0
2016-Jul-20 08:31N 40°38' W 074°09'0 0.0
2016-Jul-20 07:14N 40°38' W 074°09'0 0.0
2016-Jul-20 06:06N 40°38' W 074°09'0 0.0
2016-Jul-19 20:25N 40°38' W 074°09'1 1.6
2016-Jul-19 19:33N 40°39' W 074°11'1 0.7
2016-Jul-19 18:33N 40°38' W 074°12'0 0.0
2016-Jul-19 17:33N 40°38' W 074°12'2 2.0
2016-Jul-19 16:33N 40°38' W 074°09'2 1.0
2016-Jul-19 14:29N 40°38' W 074°12'0 0.0
2016-Jul-19 13:33N 40°38' W 074°12'0 0.0
2016-Jul-19 12:30N 40°38' W 074°12'0 0.0
2016-Jul-19 11:28N 40°38' W 074°12'0 0.4
2016-Jul-19 10:31N 40°39' W 074°11'2 1.6
2016-Jul-19 09:31N 40°38' W 074°09'0 0.0
2016-Jul-19 08:16N 40°38' W 074°09'0 0.0
2016-Jul-19 07:31N 40°38' W 074°09'0 0.0
2016-Jul-19 04:32N 40°38' W 074°09'0 0.0
2016-Jul-19 03:33N 40°38' W 074°09'0 0.0
2016-Jul-19 02:33N 40°38' W 074°09'0 0.0
2016-Jul-19 01:33N 40°38' W 074°09'0 0.0
2016-Jul-19 00:32N 40°38' W 074°09'0 0.0
2016-Jul-18 23:26N 40°38' W 074°09'0 0.0
2016-Jul-18 22:32N 40°38' W 074°09'1 0.8
2016-Jul-18 21:33N 40°39' W 074°09'1 0.8
2016-Jul-18 20:31N 40°38' W 074°09'0 0.0
2016-Jul-18 19:32N 40°38' W 074°09'0 0.0
2016-Jul-18 18:33N 40°38' W 074°09'0 0.0
2016-Jul-18 17:33N 40°38' W 074°09'0 0.0
2016-Jul-18 16:33N 40°38' W 074°09'0 0.0
2016-Jul-18 15:33N 40°38' W 074°09'0 0.0
2016-Jul-18 14:33N 40°38' W 074°09'0 0.0
2016-Jul-18 13:33N 40°38' W 074°09'0 0.0
2016-Jul-18 12:33N 40°38' W 074°09'0 0.0
2016-Jul-18 11:33N 40°38' W 074°09'0 0.0
2016-Jul-18 10:33N 40°38' W 074°09'0 0.0
2016-Jul-18 09:33N 40°38' W 074°09'0 0.0
2016-Jul-18 08:33N 40°38' W 074°09'0 0.0
2016-Jul-18 07:33N 40°38' W 074°09'0 0.0
2016-Jul-18 06:33N 40°38' W 074°09'0 0.0
2016-Jul-18 05:33N 40°38' W 074°09'0 0.0
2016-Jul-18 04:33N 40°38' W 074°09'0 0.0
2016-Jul-18 03:33N 40°38' W 074°09'0 0.0
2016-Jul-18 02:33N 40°38' W 074°09'0 0.0
2016-Jul-18 01:33N 40°38' W 074°09'0 0.0
2016-Jul-18 00:33N 40°38' W 074°09'  

Dump ship's entire track history